Time;durP1;ratioP1;P1;durP2;ratioP2;P2;SDS_P1;SDS_P2;PMS_P1;PMS_P2;Temp;Humidity;BMP_temperature;BMP_pressure;BME280_temperature;BME280_humidity;BME280_pressure;Samples;Min_cycle;Max_cycle;Signal;HPM_P1;HPM_P2
2023/10/03 00:00:51;;;;;;;14.07;8.90;;;;;;;;;;5044342;28;20183;-87
2023/10/03 00:03:17;;;;;;;14.17;8.37;;;;;;;;;;5049279;28;20206;-88
2023/10/03 00:05:45;;;;;;;16.33;9.30;;;;;;;;;;5046621;28;20186;-88
2023/10/03 00:08:10;;;;;;;12.53;8.10;;;;;;;;;;5048731;28;20201;-90
2023/10/03 00:10:38;;;;;;;13.77;7.73;;;;;;;;;;5047711;28;20235;-88
2023/10/03 00:13:07;;;;;;;14.47;8.17;;;;;;;;;;5048745;28;20170;-87
2023/10/03 00:15:32;;;;;;;14.90;9.10;;;;;;;;;;5046155;28;20185;-88
2023/10/03 00:17:58;;;;;;;12.73;8.67;;;;;;;;;;5041880;28;20185;-88
2023/10/03 00:20:23;;;;;;;13.47;8.17;;;;;;;;;;5048297;28;20205;-89
2023/10/03 00:22:50;;;;;;;16.17;9.50;;;;;;;;;;5045126;28;20182;-89
2023/10/03 00:25:18;;;;;;;14.40;8.40;;;;;;;;;;5046161;28;20235;-88
2023/10/03 00:27:46;;;;;;;14.83;8.83;;;;;;;;;;5046698;28;20215;-87
2023/10/03 00:30:15;;;;;;;12.33;7.90;;;;;;;;;;5047190;28;20169;-87
2023/10/03 00:32:41;;;;;;;13.83;8.30;;;;;;;;;;5040650;28;20193;-90
2023/10/03 00:35:08;;;;;;;17.37;9.33;;;;;;;;;;5037867;28;20176;-88
2023/10/03 00:37:33;;;;;;;14.27;8.57;;;;;;;;;;5040537;28;20453;-87
2023/10/03 00:39:59;;;;;;;13.83;8.53;;;;;;;;;;5045193;28;20178;-88
2023/10/03 00:42:25;;;;;;;16.57;6.73;;;;;;;;;;5046629;28;20182;-89
2023/10/03 00:44:50;;;;;;;12.50;7.77;;;;;;;;;;5041667;28;20252;-88
2023/10/03 00:47:15;;;;;;;12.93;7.80;;;;;;;;;;5044859;28;20201;-88
2023/10/03 00:49:43;;;;;;;9.53;6.70;;;;;;;;;;5046242;28;21427;-87
2023/10/03 00:52:09;;;;;;;10.93;7.47;;;;;;;;;;5048029;28;20173;-87
2023/10/03 00:54:36;;;;;;;10.47;6.67;;;;;;;;;;5045187;28;20438;-87
2023/10/03 00:57:01;;;;;;;12.43;7.30;;;;;;;;;;5058560;28;20238;-87
2023/10/03 00:59:28;;;;;;;16.90;7.93;;;;;;;;;;5047401;28;20199;-88
2023/10/03 01:01:59;;;;;;;10.07;5.80;;;;;;;;;;5044221;28;20215;-89
2023/10/03 01:04:31;;;;;;;9.83;6.70;;;;;;;;;;5046198;28;20200;-87
2023/10/03 01:06:58;;;;;;;9.73;6.50;;;;;;;;;;5042149;28;20201;-87
2023/10/03 01:09:28;;;;;;;10.17;6.60;;;;;;;;;;5044399;28;20202;-88
2023/10/03 01:11:54;;;;;;;10.53;6.80;;;;;;;;;;5042225;28;20204;-88
2023/10/03 01:14:19;;;;;;;11.13;6.83;;;;;;;;;;5045202;28;20174;-87
2023/10/03 01:16:45;;;;;;;11.20;6.50;;;;;;;;;;5046942;28;20176;-86
2023/10/03 01:19:29;;;;;;;9.13;6.23;;;;;;;;;;5046499;28;20349;-87
2023/10/03 01:21:54;;;;;;;9.10;6.80;;;;;;;;;;5047034;28;20181;-88
2023/10/03 01:24:25;;;;;;;10.27;6.40;;;;;;;;;;5046678;28;20227;-88
2023/10/03 01:26:52;;;;;;;9.20;6.07;;;;;;;;;;5048237;28;20236;-89
2023/10/03 01:29:18;;;;;;;12.77;6.20;;;;;;;;;;5037483;28;20249;-86
2023/10/03 01:31:43;;;;;;;8.93;6.23;;;;;;;;;;5043928;28;20175;-87
2023/10/03 01:34:09;;;;;;;10.57;6.37;;;;;;;;;;5040233;28;20173;-87
2023/10/03 01:36:34;;;;;;;10.03;6.13;;;;;;;;;;5046571;28;20250;-88
2023/10/03 01:38:59;;;;;;;8.67;5.77;;;;;;;;;;5044468;28;20212;-88
2023/10/03 01:41:25;;;;;;;9.23;5.67;;;;;;;;;;5041368;28;20252;-88
2023/10/03 01:43:50;;;;;;;10.43;6.10;;;;;;;;;;5046079;28;20212;-88
2023/10/03 01:46:18;;;;;;;11.40;5.67;;;;;;;;;;5042556;28;20220;-87
2023/10/03 01:48:43;;;;;;;8.73;5.87;;;;;;;;;;5041888;28;20247;-87
2023/10/03 01:51:09;;;;;;;8.67;5.67;;;;;;;;;;5047065;28;20178;-87
2023/10/03 01:53:35;;;;;;;9.40;5.87;;;;;;;;;;5041443;28;20191;-87
2023/10/03 01:56:00;;;;;;;9.40;6.50;;;;;;;;;;5047788;28;20210;-87
2023/10/03 01:58:26;;;;;;;9.27;5.63;;;;;;;;;;5046177;28;20240;-87
2023/10/03 02:00:51;;;;;;;9.30;5.90;;;;;;;;;;5044707;28;20255;-86
2023/10/03 02:03:18;;;;;;;8.33;5.23;;;;;;;;;;5047997;28;20175;-87
2023/10/03 02:05:44;;;;;;;6.60;5.20;;;;;;;;;;5048450;28;20217;-87
2023/10/03 02:08:15;;;;;;;8.27;5.87;;;;;;;;;;5042326;28;20208;-87
2023/10/03 02:10:41;;;;;;;8.77;5.47;;;;;;;;;;5046631;28;20184;-87
2023/10/03 02:13:12;;;;;;;7.93;5.90;;;;;;;;;;5048072;28;20185;-88
2023/10/03 02:15:39;;;;;;;8.80;5.80;;;;;;;;;;5045512;28;20278;-89
2023/10/03 02:18:05;;;;;;;8.50;5.40;;;;;;;;;;5048145;28;20177;-86
2023/10/03 02:20:38;;;;;;;8.83;5.80;;;;;;;;;;5040119;28;20280;-87
2023/10/03 02:23:05;;;;;;;8.47;5.90;;;;;;;;;;5042560;28;20188;-87
2023/10/03 02:25:35;;;;;;;11.40;5.87;;;;;;;;;;5046618;28;20206;-87
2023/10/03 02:28:02;;;;;;;9.90;5.67;;;;;;;;;;5044046;28;20209;-88
2023/10/03 02:30:27;;;;;;;8.83;5.50;;;;;;;;;;5044651;28;20192;-87
2023/10/03 02:32:52;;;;;;;7.27;5.30;;;;;;;;;;5043633;28;20189;-86
2023/10/03 02:35:19;;;;;;;10.13;6.10;;;;;;;;;;5043296;28;20209;-88
2023/10/03 02:37:44;;;;;;;7.07;5.20;;;;;;;;;;5041607;28;20218;-88
2023/10/03 02:40:10;;;;;;;10.77;5.37;;;;;;;;;;5048133;28;20204;-87
2023/10/03 02:42:39;;;;;;;7.23;5.60;;;;;;;;;;5043177;28;20188;-88
2023/10/03 02:45:05;;;;;;;8.83;5.60;;;;;;;;;;5032390;28;20320;-88
2023/10/03 02:47:31;;;;;;;7.53;5.33;;;;;;;;;;5043186;28;20268;-89
2023/10/03 02:49:58;;;;;;;9.77;5.50;;;;;;;;;;5042120;28;20195;-88
2023/10/03 02:52:24;;;;;;;7.53;5.13;;;;;;;;;;5046413;28;20178;-88
2023/10/03 02:54:49;;;;;;;12.30;6.00;;;;;;;;;;5045774;28;20236;-87
2023/10/03 02:57:15;;;;;;;7.60;5.47;;;;;;;;;;5043428;28;20221;-88
2023/10/03 02:59:44;;;;;;;8.03;5.43;;;;;;;;;;5044143;28;20210;-88
2023/10/03 03:02:11;;;;;;;8.37;5.27;;;;;;;;;;5045196;28;20249;-87
2023/10/03 03:04:36;;;;;;;7.80;5.10;;;;;;;;;;5046865;28;20434;-87
2023/10/03 03:07:04;;;;;;;8.07;4.90;;;;;;;;;;5045945;28;20226;-87
2023/10/03 03:09:36;;;;;;;6.60;4.63;;;;;;;;;;5046361;28;20183;-87
2023/10/03 03:12:01;;;;;;;8.43;4.90;;;;;;;;;;5045880;28;20208;-87
2023/10/03 03:14:27;;;;;;;7.80;5.63;;;;;;;;;;5050546;28;20223;-88
2023/10/03 03:16:53;;;;;;;9.67;5.70;;;;;;;;;;5042243;28;20265;-87
2023/10/03 03:19:18;;;;;;;9.43;5.47;;;;;;;;;;5050062;28;20193;-88
2023/10/03 03:21:44;;;;;;;6.77;5.07;;;;;;;;;;5050042;28;20192;-87
2023/10/03 03:24:10;;;;;;;7.53;5.57;;;;;;;;;;5052712;28;20202;-88
2023/10/03 03:26:36;;;;;;;6.67;5.10;;;;;;;;;;5050206;28;20192;-87
2023/10/03 03:29:19;;;;;;;7.43;4.90;;;;;;;;;;5047311;28;20188;-87
2023/10/03 03:31:44;;;;;;;7.67;5.13;;;;;;;;;;5045162;28;20200;-86
2023/10/03 03:34:11;;;;;;;8.50;4.77;;;;;;;;;;5047820;28;20181;-87
2023/10/03 03:36:38;;;;;;;9.20;5.40;;;;;;;;;;5047632;28;20715;-88
2023/10/03 03:39:12;;;;;;;7.00;5.07;;;;;;;;;;5041583;28;20203;-88
2023/10/03 03:41:39;;;;;;;8.53;5.50;;;;;;;;;;5047773;28;20193;-87
2023/10/03 03:44:11;;;;;;;8.63;5.93;;;;;;;;;;5048981;28;20225;-88
2023/10/03 03:46:37;;;;;;;9.37;4.80;;;;;;;;;;5049303;28;20267;-90
2023/10/03 03:49:04;;;;;;;11.70;5.07;;;;;;;;;;5048603;28;20243;-87
2023/10/03 03:51:30;;;;;;;10.00;5.27;;;;;;;;;;5049996;28;20241;-88
2023/10/03 03:53:55;;;;;;;7.93;5.43;;;;;;;;;;5042462;28;20194;-86
2023/10/03 03:56:21;;;;;;;9.30;5.30;;;;;;;;;;5049221;28;20190;-89
2023/10/03 03:58:48;;;;;;;8.23;5.03;;;;;;;;;;5045613;28;20244;-86
2023/10/03 04:01:23;;;;;;;7.43;4.90;;;;;;;;;;5044777;28;20185;-87
2023/10/03 04:03:53;;;;;;;7.47;5.20;;;;;;;;;;5048493;28;20241;-87
2023/10/03 04:06:19;;;;;;;8.20;5.60;;;;;;;;;;5042145;28;20181;-88
2023/10/03 04:08:45;;;;;;;8.37;4.53;;;;;;;;;;5046915;28;20198;-88
2023/10/03 04:11:11;;;;;;;7.47;4.67;;;;;;;;;;5044690;28;20191;-90
2023/10/03 04:13:39;;;;;;;7.50;5.17;;;;;;;;;;5050656;28;20185;-87
2023/10/03 04:16:08;;;;;;;11.77;5.10;;;;;;;;;;5046482;28;20273;-89
2023/10/03 04:18:34;;;;;;;9.20;4.93;;;;;;;;;;5061036;28;20198;-88
2023/10/03 04:20:59;;;;;;;9.37;5.33;;;;;;;;;;5046484;28;20174;-89
2023/10/03 04:23:24;;;;;;;7.83;5.13;;;;;;;;;;5043970;28;20178;-88
2023/10/03 04:25:50;;;;;;;7.03;4.83;;;;;;;;;;5042318;28;20181;-87
2023/10/03 04:28:16;;;;;;;8.03;4.97;;;;;;;;;;5048086;28;20206;-87
2023/10/03 04:30:42;;;;;;;7.03;4.30;;;;;;;;;;5047624;28;20205;-87
2023/10/03 04:33:07;;;;;;;8.13;5.40;;;;;;;;;;5044529;28;20185;-88
2023/10/03 04:35:34;;;;;;;5.83;4.67;;;;;;;;;;5045047;28;20204;-87
2023/10/03 04:37:59;;;;;;;10.53;5.50;;;;;;;;;;5041085;28;20183;-89
2023/10/03 04:40:31;;;;;;;7.80;5.47;;;;;;;;;;5045729;28;20184;-87
2023/10/03 04:42:57;;;;;;;7.90;5.23;;;;;;;;;;5041610;28;20212;-87
2023/10/03 04:45:23;;;;;;;8.83;4.87;;;;;;;;;;5030423;28;20248;-90
2023/10/03 04:47:48;;;;;;;9.57;5.57;;;;;;;;;;5043731;28;20209;-87
2023/10/03 04:50:18;;;;;;;8.07;5.70;;;;;;;;;;5045224;28;20177;-87
2023/10/03 04:52:43;;;;;;;8.00;5.33;;;;;;;;;;5047166;28;20188;-87
2023/10/03 04:55:09;;;;;;;8.53;5.73;;;;;;;;;;5042025;28;20185;-87
2023/10/03 04:57:34;;;;;;;6.60;4.70;;;;;;;;;;5037502;28;20255;-87
2023/10/03 04:59:59;;;;;;;8.07;4.97;;;;;;;;;;5047695;28;20197;-88
2023/10/03 05:02:25;;;;;;;7.17;5.10;;;;;;;;;;5043646;28;20209;-88
2023/10/03 05:04:51;;;;;;;7.17;5.40;;;;;;;;;;5051130;28;20181;-88
2023/10/03 05:07:16;;;;;;;7.90;5.70;;;;;;;;;;5038663;28;20232;-87
2023/10/03 05:09:42;;;;;;;7.10;4.83;;;;;;;;;;5039516;28;20236;-87
2023/10/03 05:12:07;;;;;;;8.77;5.23;;;;;;;;;;5045734;28;20188;-86
2023/10/03 05:14:34;;;;;;;6.30;4.90;;;;;;;;;;5049045;28;20190;-86
2023/10/03 05:17:01;;;;;;;7.70;5.40;;;;;;;;;;5045733;28;20211;-88
2023/10/03 05:19:27;;;;;;;6.87;5.07;;;;;;;;;;5040940;28;20203;-87
2023/10/03 05:21:52;;;;;;;7.83;5.63;;;;;;;;;;5048301;28;20187;-88
2023/10/03 05:24:19;;;;;;;9.63;5.63;;;;;;;;;;5046913;28;20174;-87
2023/10/03 05:26:44;;;;;;;6.97;4.63;;;;;;;;;;5049125;28;20202;-86
2023/10/03 05:29:09;;;;;;;9.53;6.33;;;;;;;;;;5046251;28;20184;-88
2023/10/03 05:31:34;;;;;;;9.97;5.50;;;;;;;;;;5048191;28;20206;-88
2023/10/03 05:34:00;;;;;;;8.50;5.23;;;;;;;;;;5044962;28;20185;-87
2023/10/03 05:36:25;;;;;;;7.07;4.97;;;;;;;;;;5049202;28;20259;-87
2023/10/03 05:38:50;;;;;;;7.83;4.90;;;;;;;;;;5046785;28;20187;-87
2023/10/03 05:41:20;;;;;;;9.80;5.60;;;;;;;;;;5045608;28;20180;-87
2023/10/03 05:43:45;;;;;;;10.50;5.13;;;;;;;;;;5046655;28;20187;-88
2023/10/03 05:46:11;;;;;;;6.30;4.63;;;;;;;;;;5046133;28;20259;-88
2023/10/03 05:48:36;;;;;;;9.03;4.90;;;;;;;;;;5047341;28;20455;-87
2023/10/03 05:51:01;;;;;;;11.13;6.13;;;;;;;;;;5039114;28;20240;-87
2023/10/03 05:53:27;;;;;;;7.70;5.00;;;;;;;;;;5045800;28;20288;-89
2023/10/03 05:55:52;;;;;;;8.47;5.40;;;;;;;;;;5046400;28;20188;-88
2023/10/03 05:58:17;;;;;;;10.97;5.87;;;;;;;;;;5046062;28;20269;-88
2023/10/03 06:00:42;;;;;;;9.33;5.57;;;;;;;;;;5045768;28;20225;-87
2023/10/03 06:03:09;;;;;;;9.83;5.47;;;;;;;;;;5048147;28;20180;-88
2023/10/03 06:05:34;;;;;;;11.67;5.97;;;;;;;;;;5044144;28;20208;-86
2023/10/03 06:08:00;;;;;;;8.80;6.03;;;;;;;;;;5047367;28;20229;-89
2023/10/03 06:10:25;;;;;;;7.83;5.47;;;;;;;;;;5043200;28;20184;-88
2023/10/03 06:12:53;;;;;;;8.87;5.87;;;;;;;;;;5045985;28;20174;-87
2023/10/03 06:15:18;;;;;;;10.47;5.53;;;;;;;;;;5045275;28;20257;-86
2023/10/03 06:17:43;;;;;;;8.50;5.23;;;;;;;;;;5045649;28;20271;-89
2023/10/03 06:20:14;;;;;;;8.90;6.27;;;;;;;;;;5039264;28;20310;-89
2023/10/03 06:22:39;;;;;;;8.33;5.60;;;;;;;;;;5038921;28;20195;-89
2023/10/03 06:25:05;;;;;;;6.50;5.13;;;;;;;;;;5035054;28;20185;-88
2023/10/03 06:27:31;;;;;;;6.77;4.90;;;;;;;;;;5032867;28;20207;-87
2023/10/03 06:29:56;;;;;;;6.97;5.43;;;;;;;;;;5029806;28;20320;-88
2023/10/03 06:32:22;;;;;;;8.50;4.60;;;;;;;;;;5032259;28;20216;-88
2023/10/03 06:34:47;;;;;;;6.83;4.87;;;;;;;;;;5033470;28;20207;-88
2023/10/03 06:37:12;;;;;;;8.07;4.97;;;;;;;;;;5032376;28;20185;-89
2023/10/03 06:39:37;;;;;;;7.90;4.53;;;;;;;;;;5046985;28;20190;-87
2023/10/03 06:42:03;;;;;;;6.20;4.97;;;;;;;;;;5044110;28;20176;-90
2023/10/03 06:44:28;;;;;;;10.43;4.80;;;;;;;;;;5044281;28;20224;-89
2023/10/03 06:46:53;;;;;;;11.23;5.17;;;;;;;;;;5050341;28;20308;-87
2023/10/03 06:49:22;;;;;;;9.50;5.57;;;;;;;;;;5042826;28;20209;-88
2023/10/03 06:51:48;;;;;;;10.03;4.97;;;;;;;;;;5050807;28;20179;-86
2023/10/03 06:54:13;;;;;;;9.20;5.40;;;;;;;;;;5043352;28;20262;-86
2023/10/03 06:56:41;;;;;;;11.50;5.00;;;;;;;;;;5051497;28;20281;-87
2023/10/03 06:59:10;;;;;;;8.53;4.77;;;;;;;;;;5049976;28;20287;-88
2023/10/03 07:01:36;;;;;;;12.07;4.83;;;;;;;;;;5046382;28;20179;-87
2023/10/03 07:04:02;;;;;;;10.87;5.83;;;;;;;;;;5050371;28;20176;-86
2023/10/03 07:06:28;;;;;;;11.87;6.23;;;;;;;;;;5027533;28;20186;-89
2023/10/03 07:08:53;;;;;;;8.50;5.40;;;;;;;;;;5049836;28;20265;-87
2023/10/03 07:11:20;;;;;;;8.13;5.63;;;;;;;;;;5047296;28;20278;-88
2023/10/03 07:13:45;;;;;;;7.57;5.70;;;;;;;;;;5048542;28;20188;-90
2023/10/03 07:16:11;;;;;;;8.13;5.57;;;;;;;;;;5050771;28;20183;-87
2023/10/03 07:18:37;;;;;;;8.97;5.50;;;;;;;;;;5046371;28;20204;-86
2023/10/03 07:21:05;;;;;;;8.37;5.70;;;;;;;;;;5044363;28;20187;-86
2023/10/03 07:23:30;;;;;;;16.43;6.10;;;;;;;;;;5040117;28;20283;-88
2023/10/03 07:25:56;;;;;;;5.43;4.73;;;;;;;;;;5049882;28;20274;-89
2023/10/03 07:28:22;;;;;;;9.97;6.17;;;;;;;;;;5047272;28;20208;-87
2023/10/03 07:30:48;;;;;;;11.17;5.97;;;;;;;;;;5049239;28;20185;-87
2023/10/03 07:33:13;;;;;;;12.37;6.10;;;;;;;;;;5046576;28;20178;-89
2023/10/03 07:35:41;;;;;;;7.93;5.57;;;;;;;;;;5047507;28;20184;-85
2023/10/03 07:38:10;;;;;;;9.77;5.47;;;;;;;;;;5046380;28;20181;-89
2023/10/03 07:40:35;;;;;;;6.93;4.87;;;;;;;;;;5047021;28;20208;-87
2023/10/03 07:43:02;;;;;;;8.90;6.13;;;;;;;;;;5050101;28;20224;-86
2023/10/03 07:45:27;;;;;;;7.23;5.57;;;;;;;;;;5041758;28;20234;-89
2023/10/03 07:47:52;;;;;;;10.63;6.07;;;;;;;;;;5043234;28;20288;-89
2023/10/03 07:50:18;;;;;;;8.87;5.57;;;;;;;;;;5046595;28;20177;-90
2023/10/03 07:52:44;;;;;;;8.77;5.77;;;;;;;;;;5048693;28;20236;-88
2023/10/03 07:55:11;;;;;;;8.17;5.60;;;;;;;;;;5049284;28;20209;-87
2023/10/03 07:57:37;;;;;;;7.90;5.37;;;;;;;;;;5046876;28;20258;-87
2023/10/03 08:00:05;;;;;;;7.47;5.53;;;;;;;;;;5047827;28;20205;-87
2023/10/03 08:02:32;;;;;;;7.53;5.87;;;;;;;;;;5044370;28;20408;-88
2023/10/03 08:05:00;;;;;;;8.30;5.63;;;;;;;;;;5042355;28;20212;-88
2023/10/03 08:07:25;;;;;;;7.53;5.80;;;;;;;;;;5045876;28;20206;-90
2023/10/03 08:09:51;;;;;;;8.00;5.70;;;;;;;;;;5060005;28;20510;-88
2023/10/03 08:12:23;;;;;;;8.47;4.80;;;;;;;;;;5047199;28;20176;-87
2023/10/03 08:14:53;;;;;;;8.07;6.03;;;;;;;;;;5042455;28;20193;-88
2023/10/03 08:17:19;;;;;;;17.70;6.67;;;;;;;;;;5024954;28;20193;-88
2023/10/03 08:19:45;;;;;;;8.90;5.93;;;;;;;;;;5050675;28;20201;-89
2023/10/03 08:22:12;;;;;;;8.03;5.37;;;;;;;;;;5047264;28;20186;-90
2023/10/03 08:24:41;;;;;;;6.97;4.90;;;;;;;;;;5047109;28;20185;-87
2023/10/03 08:27:06;;;;;;;7.43;5.23;;;;;;;;;;5050982;28;20225;-88
2023/10/03 08:29:33;;;;;;;7.10;5.50;;;;;;;;;;5050934;28;20198;-88
2023/10/03 08:31:58;;;;;;;6.07;5.30;;;;;;;;;;5047585;28;20181;-88
2023/10/03 08:34:26;;;;;;;8.77;5.13;;;;;;;;;;5048964;28;20269;-89
2023/10/03 08:36:54;;;;;;;7.93;5.40;;;;;;;;;;5041691;28;20193;-87
2023/10/03 08:39:23;;;;;;;6.70;5.30;;;;;;;;;;5046855;28;20193;-87
2023/10/03 08:42:12;;;;;;;7.50;5.50;;;;;;;;;;5045851;28;20186;-86
2023/10/03 08:44:41;;;;;;;7.50;5.27;;;;;;;;;;5049526;28;20237;-88
2023/10/03 08:47:09;;;;;;;6.53;5.03;;;;;;;;;;5043193;28;20221;-87
2023/10/03 08:49:38;;;;;;;8.50;6.00;;;;;;;;;;5053799;28;20272;-89
2023/10/03 08:52:09;;;;;;;9.60;6.23;;;;;;;;;;5045011;28;20174;-88
2023/10/03 08:54:37;;;;;;;7.50;5.50;;;;;;;;;;5049300;28;20158;-90
2023/10/03 08:57:04;;;;;;;7.00;5.80;;;;;;;;;;5046897;28;20192;-88
2023/10/03 08:59:30;;;;;;;7.70;5.33;;;;;;;;;;5048315;28;20292;-88
2023/10/03 09:01:59;;;;;;;7.57;5.10;;;;;;;;;;5045684;28;20203;-86
2023/10/03 09:04:25;;;;;;;8.77;5.63;;;;;;;;;;5049353;28;20228;-88
2023/10/03 09:06:51;;;;;;;7.47;5.10;;;;;;;;;;5047409;28;20224;-88
2023/10/03 09:09:16;;;;;;;12.50;6.37;;;;;;;;;;5047585;28;20182;-89
2023/10/03 09:11:43;;;;;;;9.27;6.03;;;;;;;;;;5045320;28;20234;-86
2023/10/03 09:14:12;;;;;;;7.80;5.30;;;;;;;;;;5045384;28;20228;-87
2023/10/03 09:16:41;;;;;;;9.07;6.40;;;;;;;;;;5043376;28;20177;-89
2023/10/03 09:19:10;;;;;;;6.23;5.60;;;;;;;;;;5041574;28;20182;-86
2023/10/03 09:21:36;;;;;;;10.77;5.57;;;;;;;;;;5049840;28;20174;-88
2023/10/03 09:24:09;;;;;;;7.20;5.67;;;;;;;;;;5047337;28;20178;-87
2023/10/03 09:26:47;;;;;;;8.65;7.13;;;;;;;;;;5046882;28;20178;-87
2023/10/03 09:29:18;;;;;;;8.13;5.67;;;;;;;;;;5044490;28;20189;-86
2023/10/03 09:31:50;;;;;;;6.70;6.00;;;;;;;;;;5048113;28;20224;-87
2023/10/03 09:34:16;;;;;;;6.78;5.60;;;;;;;;;;5047964;28;20214;-88
2023/10/03 09:36:41;;;;;;;9.80;5.67;;;;;;;;;;5047978;28;20259;-87
2023/10/03 09:39:21;;;;;;;9.10;5.68;;;;;;;;;;5046352;28;20253;-87
2023/10/03 09:41:55;;;;;;;7.85;5.90;;;;;;;;;;5044478;28;20174;-88
2023/10/03 09:44:29;;;;;;;5.68;4.97;;;;;;;;;;5046317;28;20291;-88
2023/10/03 09:47:00;;;;;;;10.40;5.45;;;;;;;;;;5040780;28;20259;-88
2023/10/03 09:49:26;;;;;;;7.73;6.00;;;;;;;;;;5045211;28;20187;-89
2023/10/03 09:51:51;;;;;;;7.13;5.57;;;;;;;;;;5044224;28;20193;-89
2023/10/03 09:54:30;;;;;;;9.53;6.03;;;;;;;;;;5047156;28;20182;-89
2023/10/03 09:57:15;;;;;;;7.25;5.78;;;;;;;;;;5040955;28;20194;-88
2023/10/03 09:59:41;;;;;;;6.47;5.70;;;;;;;;;;5047907;28;20516;-90
2023/10/03 10:02:11;;;;;;;7.37;5.67;;;;;;;;;;5039288;28;20237;-87
2023/10/03 10:04:38;;;;;;;7.83;5.67;;;;;;;;;;5044425;28;20333;-89
2023/10/03 10:07:14;;;;;;;6.25;5.65;;;;;;;;;;5041120;28;20208;-88
2023/10/03 10:09:46;;;;;;;6.03;5.33;;;;;;;;;;5042824;28;20187;-86
2023/10/03 10:12:18;;;;;;;10.47;6.03;;;;;;;;;;5047428;28;20185;-88
2023/10/03 10:14:55;;;;;;;10.85;6.18;;;;;;;;;;5042621;28;20216;-86
2023/10/03 10:17:21;;;;;;;7.45;5.88;;;;;;;;;;5041598;28;20185;-87
2023/10/03 10:20:05;;;;;;;7.33;6.20;;;;;;;;;;5042418;28;20197;-88
2023/10/03 10:22:49;;;;;;;9.55;6.15;;;;;;;;;;5043907;28;20315;-88
2023/10/03 10:25:25;;;;;;;7.32;6.00;;;;;;;;;;5043606;28;20182;-89
2023/10/03 10:27:59;;;;;;;7.57;5.88;;;;;;;;;;5040081;28;20210;-88
2023/10/03 10:30:25;;;;;;;8.38;6.18;;;;;;;;;;5057905;28;20205;-89
2023/10/03 10:33:09;;;;;;;9.05;5.80;;;;;;;;;;5044953;28;20178;-89
2023/10/03 10:35:54;;;;;;;6.40;5.80;;;;;;;;;;5042324;28;20243;-87
2023/10/03 10:38:49;;;;;;;9.02;5.85;;;;;;;;;;5039774;28;20182;-88
2023/10/03 10:41:17;;;;;;;6.60;5.10;;;;;;;;;;5037172;28;20186;-89
2023/10/03 10:44:01;;;;;;;6.25;5.00;;;;;;;;;;5047113;28;20187;-88
2023/10/03 10:46:46;;;;;;;6.57;5.30;;;;;;;;;;5027904;28;20186;-89
2023/10/03 10:49:34;;;;;;;7.40;5.57;;;;;;;;;;5025984;28;20190;-88
2023/10/03 10:52:09;;;;;;;7.40;5.72;;;;;;;;;;5037264;28;20188;-89
2023/10/03 10:54:39;;;;;;;6.28;5.25;;;;;;;;;;5043944;28;20221;-90
2023/10/03 10:57:05;;;;;;;7.45;5.63;;;;;;;;;;5042156;28;20248;-89
2023/10/03 10:59:40;;;;;;;6.80;5.68;;;;;;;;;;5044210;28;20205;-90
2023/10/03 11:02:18;;;;;;;6.25;5.32;;;;;;;;;;5042599;28;20208;-89
2023/10/03 11:04:44;;;;;;;7.40;5.20;;;;;;;;;;5043120;28;20208;-89
2023/10/03 11:07:10;;;;;;;7.32;5.40;;;;;;;;;;5044918;28;20209;-87
2023/10/03 11:09:39;;;;;;;9.25;6.05;;;;;;;;;;5048318;28;20174;-88
2023/10/03 11:12:06;;;;;;;7.75;5.15;;;;;;;;;;5034115;28;20182;-87
2023/10/03 11:14:33;;;;;;;7.13;5.80;;;;;;;;;;5038594;28;20182;-89
2023/10/03 11:16:59;;;;;;;7.28;5.93;;;;;;;;;;5038301;28;20289;-88
2023/10/03 11:19:25;;;;;;;5.97;5.38;;;;;;;;;;5061750;28;20182;-89
2023/10/03 11:21:51;;;;;;;8.05;6.07;;;;;;;;;;5043229;28;20183;-90
2023/10/03 11:24:18;;;;;;;6.97;5.90;;;;;;;;;;5045781;28;20174;-88
2023/10/03 11:26:43;;;;;;;7.70;6.30;;;;;;;;;;5041864;28;20189;-90
2023/10/03 11:29:08;;;;;;;6.22;5.38;;;;;;;;;;5059885;28;20273;-88
2023/10/03 11:31:38;;;;;;;6.25;5.50;;;;;;;;;;5041895;28;20185;-89
2023/10/03 11:34:07;;;;;;;7.72;6.40;;;;;;;;;;5048802;28;20264;-87
2023/10/03 11:36:42;;;;;;;6.75;5.75;;;;;;;;;;5042444;28;20286;-90
2023/10/03 11:39:13;;;;;;;9.77;6.15;;;;;;;;;;5047407;28;20178;-90
2023/10/03 11:41:38;;;;;;;8.38;5.57;;;;;;;;;;5029745;28;20210;-89
2023/10/03 11:44:05;;;;;;;8.02;6.82;;;;;;;;;;5041153;28;20265;-90
2023/10/03 11:46:37;;;;;;;8.15;7.10;;;;;;;;;;5043943;28;20174;-89
2023/10/03 11:49:03;;;;;;;7.38;6.57;;;;;;;;;;5049572;28;20206;-90
2023/10/03 11:51:29;;;;;;;8.00;6.88;;;;;;;;;;5043250;28;20182;-91
2023/10/03 11:53:55;;;;;;;9.30;7.15;;;;;;;;;;5046421;28;20185;-89
2023/10/03 11:56:20;;;;;;;9.35;7.03;;;;;;;;;;5048280;28;20237;-89
2023/10/03 11:58:45;;;;;;;7.45;5.75;;;;;;;;;;5041420;28;20194;-90
2023/10/03 12:01:12;;;;;;;9.68;6.40;;;;;;;;;;5048432;28;20273;-89
2023/10/03 12:03:37;;;;;;;8.82;5.85;;;;;;;;;;5047530;28;20261;-90
2023/10/03 12:06:04;;;;;;;7.90;6.55;;;;;;;;;;5043372;28;20277;-90
2023/10/03 12:08:31;;;;;;;11.32;6.47;;;;;;;;;;5048047;28;20216;-89
2023/10/03 12:10:56;;;;;;;8.02;6.25;;;;;;;;;;5046851;28;20276;-88
2023/10/03 12:13:21;;;;;;;7.22;6.10;;;;;;;;;;5049004;28;20272;-88
2023/10/03 12:15:47;;;;;;;5.13;4.60;;;;;;;;;;5049705;28;20179;-92
2023/10/03 12:18:16;;;;;;;7.63;6.32;;;;;;;;;;5047184;28;20186;-89
2023/10/03 12:20:43;;;;;;;9.65;7.00;;;;;;;;;;5039936;28;20204;-87
2023/10/03 12:23:09;;;;;;;9.82;6.25;;;;;;;;;;5044735;28;20193;-88
2023/10/03 12:25:35;;;;;;;12.35;7.15;;;;;;;;;;5050064;28;20183;-91
2023/10/03 12:28:00;;;;;;;11.35;6.40;;;;;;;;;;5049259;28;20260;-89
2023/10/03 12:30:25;;;;;;;9.48;7.15;;;;;;;;;;5043663;28;20209;-90
2023/10/03 12:32:51;;;;;;;7.83;6.80;;;;;;;;;;5049670;28;20213;-89
2023/10/03 12:35:17;;;;;;;9.23;6.23;;;;;;;;;;5046683;28;20269;-90
2023/10/03 12:37:48;;;;;;;9.70;7.28;;;;;;;;;;5048358;28;20241;-89
2023/10/03 12:40:16;;;;;;;8.73;6.27;;;;;;;;;;5048656;28;20188;-88
2023/10/03 12:42:50;;;;;;;6.97;6.25;;;;;;;;;;5052761;28;20185;-89
2023/10/03 12:45:20;;;;;;;7.83;5.93;;;;;;;;;;5047514;28;20235;-90
2023/10/03 12:47:49;;;;;;;6.75;6.05;;;;;;;;;;5048830;28;20251;-89
2023/10/03 12:50:14;;;;;;;6.13;5.53;;;;;;;;;;5047145;28;20257;-89
2023/10/03 12:52:42;;;;;;;10.83;6.43;;;;;;;;;;5050371;28;20265;-89
2023/10/03 12:55:11;;;;;;;8.35;6.55;;;;;;;;;;5042389;28;20178;-89
2023/10/03 12:57:39;;;;;;;6.57;5.80;;;;;;;;;;5047526;28;20191;-88
2023/10/03 13:00:25;;;;;;;8.43;6.30;;;;;;;;;;5049603;28;20189;-91
2023/10/03 13:02:51;;;;;;;7.57;6.07;;;;;;;;;;5048825;28;20252;-88
2023/10/03 13:05:20;;;;;;;9.33;6.40;;;;;;;;;;5048777;28;20268;-87
2023/10/03 13:07:47;;;;;;;8.13;5.60;;;;;;;;;;5047379;28;20208;-90
2023/10/03 13:10:13;;;;;;;9.70;5.87;;;;;;;;;;5045272;28;20180;-87
2023/10/03 13:12:41;;;;;;;8.63;5.90;;;;;;;;;;5041788;28;20231;-89
2023/10/03 13:15:10;;;;;;;8.43;6.10;;;;;;;;;;5039714;28;20239;-88
2023/10/03 13:17:37;;;;;;;7.97;5.30;;;;;;;;;;5041172;28;20200;-89
2023/10/03 13:20:07;;;;;;;7.37;5.57;;;;;;;;;;5047828;28;20189;-87
2023/10/03 13:22:33;;;;;;;7.23;5.73;;;;;;;;;;5046946;28;20182;-88
2023/10/03 13:24:58;;;;;;;6.28;5.65;;;;;;;;;;5048584;28;20182;-87
2023/10/03 13:27:25;;;;;;;6.60;5.13;;;;;;;;;;5045414;28;20198;-89
2023/10/03 13:29:51;;;;;;;7.25;5.45;;;;;;;;;;5047176;28;20178;-90
2023/10/03 13:32:18;;;;;;;6.75;5.40;;;;;;;;;;5046061;28;20184;-90
2023/10/03 13:34:43;;;;;;;7.55;5.47;;;;;;;;;;5042859;28;20262;-88
2023/10/03 13:37:09;;;;;;;8.10;5.43;;;;;;;;;;5039842;28;20320;-87
2023/10/03 13:39:35;;;;;;;6.60;4.50;;;;;;;;;;5044037;28;20239;-89
2023/10/03 13:42:01;;;;;;;14.67;6.27;;;;;;;;;;5046322;28;20178;-89
2023/10/03 13:44:26;;;;;;;8.77;5.40;;;;;;;;;;5042352;28;20227;-90
2023/10/03 13:46:51;;;;;;;11.07;5.60;;;;;;;;;;5046213;28;20282;-88
2023/10/03 13:49:19;;;;;;;8.53;5.50;;;;;;;;;;5048298;28;20194;-88
2023/10/03 13:51:44;;;;;;;8.23;5.37;;;;;;;;;;5050573;28;20185;-89
2023/10/03 13:54:10;;;;;;;19.40;6.67;;;;;;;;;;5045779;28;20586;-89
2023/10/03 13:56:35;;;;;;;8.10;5.13;;;;;;;;;;5048261;28;20188;-88
2023/10/03 13:59:03;;;;;;;7.37;4.97;;;;;;;;;;5046992;28;20213;-91
2023/10/03 14:01:29;;;;;;;7.37;4.90;;;;;;;;;;5045419;28;20202;-88
2023/10/03 14:03:56;;;;;;;5.27;4.43;;;;;;;;;;5048425;28;20203;-88
2023/10/03 14:06:22;;;;;;;6.53;4.10;;;;;;;;;;5047513;28;20212;-87
2023/10/03 14:08:48;;;;;;;7.60;4.67;;;;;;;;;;5046541;28;20338;-89
2023/10/03 14:11:24;;;;;;;7.27;4.60;;;;;;;;;;5047681;28;20175;-89
2023/10/03 14:13:52;;;;;;;7.17;5.20;;;;;;;;;;5046323;28;20171;-87
2023/10/03 14:16:21;;;;;;;6.83;4.23;;;;;;;;;;5046918;28;20176;-87
2023/10/03 14:18:46;;;;;;;6.93;4.70;;;;;;;;;;5047580;28;20192;-89
2023/10/03 14:21:11;;;;;;;7.67;4.57;;;;;;;;;;5046245;28;20184;-87
2023/10/03 14:23:37;;;;;;;7.27;4.50;;;;;;;;;;5048786;28;20169;-87
2023/10/03 14:26:02;;;;;;;9.33;5.13;;;;;;;;;;5050036;28;20459;-90
2023/10/03 14:28:28;;;;;;;7.43;4.40;;;;;;;;;;5038586;28;20240;-89
2023/10/03 14:30:53;;;;;;;5.67;4.07;;;;;;;;;;5042652;28;20179;-90
2023/10/03 14:33:18;;;;;;;7.33;4.83;;;;;;;;;;5046118;28;20175;-88
2023/10/03 14:35:44;;;;;;;7.83;4.63;;;;;;;;;;5047736;28;20190;-89
2023/10/03 14:38:10;;;;;;;5.90;4.30;;;;;;;;;;5043836;28;20185;-91
2023/10/03 14:40:36;;;;;;;6.97;3.87;;;;;;;;;;5050209;28;20178;-88
2023/10/03 14:43:03;;;;;;;8.23;4.47;;;;;;;;;;5044719;28;20177;-89